createdAt,value
2023-01-20T00:04:06.194Z,26.02
2023-01-20T00:09:08.283Z,26.17
2023-01-20T00:14:10.876Z,27.40
2023-01-20T00:19:14.398Z,30.48
2023-01-20T00:24:16.470Z,31.70
2023-01-20T00:29:18.529Z,30.55
2023-01-20T00:34:20.614Z,29.80
2023-01-20T00:39:22.739Z,29.95
2023-01-20T00:44:24.868Z,27.45
2023-01-20T00:49:27.012Z,28.15
2023-01-20T00:54:29.049Z,28.83
2023-01-20T00:59:31.056Z,26.73
2023-01-20T01:04:33.108Z,26.52
2023-01-20T01:09:35.332Z,28.10
2023-01-20T01:14:37.348Z,28.23
2023-01-20T01:19:39.379Z,27.92
2023-01-20T01:24:44.256Z,29.92
2023-01-20T01:29:46.452Z,27.98
2023-01-20T01:34:48.548Z,29.13
2023-01-20T01:39:50.761Z,26.38
2023-01-20T01:45:11.801Z,27.58
2023-01-20T01:50:18.917Z,29.05
2023-01-20T01:55:25.821Z,26.23
2023-01-20T02:00:28.254Z,28.85
2023-01-20T02:05:30.803Z,25.88
2023-01-20T02:10:32.867Z,26.67
2023-01-20T02:15:48.044Z,26.83
2023-01-20T02:21:37.751Z,27.77
2023-01-20T02:27:08.581Z,27.10
2023-01-20T02:32:27.016Z,31.08
2023-01-20T02:37:35.905Z,30.90
2023-01-20T02:42:43.413Z,31.70
2023-01-20T02:47:56.556Z,32.42
2023-01-20T02:53:00.624Z,33.83
2023-01-20T02:58:10.715Z,33.95
2023-01-20T03:03:17.379Z,36.42
2023-01-20T03:08:21.682Z,36.75
2023-01-20T03:13:39.894Z,34.67
2023-01-20T03:18:42.071Z,38.47
2023-01-20T03:23:48.211Z,34.42
2023-01-20T03:28:50.526Z,36.30
2023-01-20T03:33:55.903Z,37.70
2023-01-20T03:38:58.807Z,35.92
2023-01-20T03:44:18.914Z,35.72
2023-01-20T03:49:33.754Z,33.57
2023-01-20T03:54:48.606Z,32.80
2023-01-20T03:59:52.326Z,31.65
2023-01-20T04:04:55.819Z,31.17
2023-01-20T04:10:05.425Z,31.73
2023-01-20T04:15:08.238Z,32.20
2023-01-20T04:20:13.355Z,29.63
2023-01-20T04:25:30.984Z,28.42
2023-01-20T04:30:33.063Z,29.25
2023-01-20T04:35:35.124Z,27.00
2023-01-20T04:40:37.195Z,27.70
2023-01-20T04:45:41.387Z,30.55
2023-01-20T04:50:43.501Z,30.95
2023-01-20T04:55:46.167Z,32.35
2023-01-20T05:00:48.523Z,31.42
2023-01-20T05:05:54.371Z,31.58
2023-01-20T05:10:56.604Z,28.95
2023-01-20T05:16:00.134Z,28.30
2023-01-20T05:21:05.568Z,27.15
2023-01-20T05:26:07.620Z,29.67
2023-01-20T05:31:09.980Z,27.65
2023-01-20T05:36:12.587Z,26.40
2023-01-20T05:41:14.715Z,26.42
2023-01-20T05:46:16.887Z,28.58
2023-01-20T05:51:19.289Z,29.05
2023-01-20T05:56:21.292Z,27.25
2023-01-20T06:01:23.471Z,27.77
2023-01-20T06:06:25.773Z,27.88
2023-01-20T06:11:27.811Z,27.90
2023-01-20T06:16:29.880Z,27.83
2023-01-20T06:21:32.171Z,25.77
2023-01-20T06:26:34.351Z,25.83
2023-01-20T06:31:36.388Z,27.05
2023-01-20T06:36:38.825Z,25.55
2023-01-20T06:41:40.886Z,26.75
2023-01-20T06:46:43.044Z,26.05
2023-01-20T06:51:47.732Z,25.33
2023-01-20T06:56:49.730Z,25.55
2023-01-20T07:01:52.803Z,27.27
2023-01-20T07:06:55.152Z,28.05
2023-01-20T07:11:57.275Z,25.27
2023-01-20T07:16:59.450Z,24.23
2023-01-20T07:22:01.627Z,24.00
2023-01-20T07:27:03.918Z,22.90
2023-01-20T07:32:05.972Z,21.42
2023-01-20T07:37:07.992Z,20.08
2023-01-20T07:42:10.173Z,21.77
2023-01-20T07:47:12.243Z,21.20
2023-01-20T07:52:14.369Z,21.92
2023-01-20T07:57:16.366Z,21.25
2023-01-20T08:02:18.453Z,20.65
2023-01-20T08:07:20.497Z,20.95
2023-01-20T08:12:23.644Z,22.08
2023-01-20T08:17:25.795Z,22.35
2023-01-20T08:22:27.928Z,19.77
2023-01-20T08:27:29.946Z,18.58
2023-01-20T08:32:32.365Z,19.38
2023-01-20T08:37:36.805Z,17.85
2023-01-20T08:42:39.486Z,18.83
2023-01-20T08:47:45.732Z,19.17
2023-01-20T08:52:48.174Z,17.75
2023-01-20T08:57:50.277Z,19.00
2023-01-20T09:02:52.445Z,20.42
2023-01-20T09:07:54.574Z,21.20
2023-01-20T09:12:56.607Z,21.52
2023-01-20T09:18:01.541Z,21.05
2023-01-20T09:23:03.593Z,20.40
2023-01-20T09:28:06.731Z,19.65
2023-01-20T09:33:12.659Z,19.02
2023-01-20T09:38:32.988Z,19.88
2023-01-20T09:43:55.414Z,19.00
2023-01-20T09:49:50.227Z,20.83
2023-01-20T09:54:59.100Z,20.02
2023-01-20T10:00:06.821Z,20.77
2023-01-20T10:05:13.795Z,19.45
2023-01-20T10:10:39.998Z,19.58
2023-01-20T10:15:45.708Z,19.00
2023-01-20T10:20:53.875Z,19.85
2023-01-20T10:26:04.996Z,21.38
2023-01-20T10:31:27.550Z,19.83
2023-01-20T10:36:31.122Z,20.80
2023-01-20T10:41:43.784Z,21.50
2023-01-20T10:47:13.796Z,20.95
2023-01-20T10:52:24.545Z,21.45
2023-01-20T11:02:34.983Z,24.67
2023-01-20T11:07:37.223Z,23.65
2023-01-20T11:12:41.736Z,32.67
2023-01-20T11:17:43.778Z,26.42
2023-01-20T11:22:48.508Z,23.73
2023-01-20T11:27:50.862Z,24.30
2023-01-20T11:33:19.686Z,23.90
2023-01-20T11:38:24.789Z,20.63
2023-01-20T11:43:35.595Z,20.30
2023-01-20T11:48:37.727Z,20.48
2023-01-20T11:53:39.889Z,20.10
2023-01-20T11:58:58.240Z,20.85
2023-01-20T12:04:26.880Z,20.95
2023-01-20T12:09:38.406Z,22.83
2023-01-20T12:14:49.129Z,18.98
2023-01-20T12:25:10.118Z,19.48
2023-01-20T12:30:41.248Z,19.83
2023-01-20T12:35:56.408Z,20.33
2023-01-20T12:41:03.488Z,22.05
2023-01-20T12:46:21.488Z,32.33
2023-01-20T12:51:42.535Z,22.98
2023-01-20T12:57:00.233Z,21.63
2023-01-20T13:02:22.634Z,22.35
2023-01-20T13:07:42.968Z,24.30
2023-01-20T13:13:08.580Z,19.50
2023-01-20T13:18:36.931Z,26.45
2023-01-20T13:23:39.214Z,58.72
2023-01-20T13:28:53.265Z,98.07
2023-01-20T13:34:21.082Z,90.50
2023-01-20T13:39:29.253Z,35.08
2023-01-20T13:44:42.184Z,23.23
2023-01-20T13:49:49.662Z,20.58
2023-01-20T13:54:52.001Z,16.65
2023-01-20T13:59:55.064Z,32.28
2023-01-20T14:04:58.710Z,35.67
2023-01-20T14:10:01.804Z,17.58
2023-01-20T14:15:04.153Z,24.15
2023-01-20T14:20:23.534Z,21.10
2023-01-20T14:25:26.834Z,17.77
2023-01-20T14:30:29.428Z,16.73
2023-01-20T14:35:34.096Z,15.45
2023-01-20T14:40:36.184Z,16.25
2023-01-20T14:45:41.569Z,16.60
2023-01-20T14:50:48.827Z,15.95
2023-01-20T14:56:07.377Z,19.33
2023-01-20T15:01:21.259Z,21.33
2023-01-20T15:06:24.703Z,20.58
2023-01-20T15:11:31.095Z,18.77
2023-01-20T15:16:35.888Z,18.80
2023-01-20T15:21:37.923Z,22.90
2023-01-20T15:26:40.036Z,20.67
2023-01-20T15:31:42.120Z,35.60
2023-01-20T15:36:46.205Z,26.48
2023-01-20T15:41:53.738Z,18.65
2023-01-20T15:46:57.530Z,28.23
2023-01-20T15:51:59.799Z,40.00
2023-01-20T15:57:01.833Z,20.58
2023-01-20T16:02:04.545Z,18.42
2023-01-20T16:07:12.382Z,18.42
2023-01-20T16:12:18.683Z,19.25
2023-01-20T16:17:21.626Z,19.42
2023-01-20T16:22:23.607Z,19.00
2023-01-20T16:27:25.614Z,18.20
2023-01-20T16:32:28.037Z,24.17
2023-01-20T16:37:30.042Z,19.90
2023-01-20T16:42:33.269Z,19.50
2023-01-20T16:47:35.320Z,21.38
2023-01-20T16:52:37.365Z,20.40
2023-01-20T16:57:39.449Z,22.63
2023-01-20T17:02:41.476Z,23.42
2023-01-20T17:07:43.547Z,21.42
2023-01-20T17:12:48.683Z,20.80
2023-01-20T17:17:54.571Z,21.10
2023-01-20T17:22:56.794Z,21.60
2023-01-20T17:27:58.901Z,21.52
2023-01-20T17:33:00.933Z,20.45
2023-01-20T17:38:03.039Z,26.80
2023-01-20T17:43:05.228Z,19.77
2023-01-20T17:48:07.264Z,20.05
2023-01-20T17:53:09.532Z,19.33
2023-01-20T17:58:11.611Z,17.85
2023-01-20T18:03:13.832Z,17.27
2023-01-20T18:08:15.948Z,16.52
2023-01-20T18:13:18.184Z,17.17
2023-01-20T18:18:20.378Z,16.40
2023-01-20T18:23:22.465Z,15.65
2023-01-20T18:28:24.503Z,17.33
2023-01-20T18:33:26.766Z,17.48
2023-01-20T18:38:28.756Z,16.80
2023-01-20T18:43:31.219Z,18.23
2023-01-20T18:48:36.732Z,18.92
2023-01-20T18:53:41.300Z,19.27
2023-01-20T18:58:47.041Z,20.20
2023-01-20T19:03:49.981Z,21.38
2023-01-20T19:08:52.385Z,20.70
2023-01-20T19:13:55.087Z,21.15
2023-01-20T19:18:59.867Z,22.42
2023-01-20T19:24:05.703Z,21.45
2023-01-20T19:29:11.744Z,22.55
2023-01-20T19:34:13.895Z,25.42
2023-01-20T19:39:16.183Z,23.75
2023-01-20T19:44:18.336Z,22.20
2023-01-20T19:49:20.351Z,21.42
2023-01-20T19:54:24.169Z,20.50
2023-01-20T19:59:26.445Z,20.42
2023-01-20T20:04:28.758Z,20.45
2023-01-20T20:09:30.793Z,19.50
2023-01-20T20:14:33.839Z,22.00
2023-01-20T20:19:36.022Z,21.85
2023-01-20T20:24:38.058Z,22.25
2023-01-20T20:29:40.115Z,24.67
2023-01-20T20:34:42.603Z,23.10
2023-01-20T20:39:45.603Z,23.33
2023-01-20T20:44:47.655Z,23.42
2023-01-20T20:49:49.936Z,24.45
2023-01-20T20:54:53.947Z,23.50
2023-01-20T20:59:59.298Z,24.15
2023-01-20T21:05:01.932Z,26.25
2023-01-20T21:10:04.863Z,26.92
2023-01-20T21:15:07.490Z,27.37
2023-01-20T21:20:10.155Z,26.88
2023-01-20T21:25:12.177Z,30.27
2023-01-20T21:30:14.673Z,27.90
2023-01-20T21:35:16.947Z,28.58
2023-01-20T21:40:19.259Z,29.23
2023-01-20T21:45:22.652Z,30.00
2023-01-20T21:50:43.331Z,28.63
2023-01-20T21:55:45.334Z,28.73
2023-01-20T22:00:49.323Z,28.20
2023-01-20T22:05:51.402Z,30.17
2023-01-20T22:11:03.818Z,26.00
2023-01-20T22:16:06.600Z,26.75
2023-01-20T22:21:08.718Z,29.85
2023-01-20T22:26:11.124Z,29.65
2023-01-20T22:31:19.632Z,28.55
2023-01-20T22:36:22.655Z,29.23
2023-01-20T22:41:25.252Z,28.85
2023-01-20T22:46:29.420Z,29.23
2023-01-20T22:51:31.665Z,28.42
2023-01-20T22:56:33.760Z,28.35
2023-01-20T23:01:35.960Z,29.23
2023-01-20T23:06:38.180Z,28.60
2023-01-20T23:11:41.447Z,28.52
2023-01-20T23:16:43.598Z,28.83
2023-01-20T23:21:48.411Z,29.77
2023-01-20T23:26:53.164Z,27.98
2023-01-20T23:31:55.337Z,29.38
2023-01-20T23:36:57.462Z,30.52
2023-01-20T23:41:59.634Z,28.83
2023-01-20T23:47:01.813Z,29.92
2023-01-20T23:52:04.788Z,27.95
2023-01-20T23:57:07.089Z,30.05
